createdAt,value
2017-05-07T00:00:12.946Z,0
2017-05-07T00:00:53.531Z,0
2017-05-07T00:01:34.157Z,0
2017-05-07T00:02:14.785Z,0
2017-05-07T00:02:55.392Z,0
2017-05-07T00:03:35.990Z,0
2017-05-07T00:04:16.576Z,0
2017-05-07T00:04:57.204Z,0
2017-05-07T00:05:37.861Z,0
2017-05-07T00:06:18.433Z,0
2017-05-07T00:06:59.040Z,0
2017-05-07T00:07:39.636Z,0
2017-05-07T00:08:20.232Z,0
2017-05-07T00:09:00.809Z,0
2017-05-07T00:09:41.399Z,0
2017-05-07T00:10:21.987Z,0
2017-05-07T00:11:02.567Z,0
2017-05-07T00:11:43.145Z,0
2017-05-07T00:12:23.781Z,0
2017-05-07T00:13:04.364Z,0
2017-05-07T00:13:44.973Z,0
2017-05-07T00:14:25.571Z,0
2017-05-07T00:15:06.186Z,0
2017-05-07T00:15:46.738Z,0
2017-05-07T00:16:27.309Z,0
2017-05-07T00:17:07.929Z,0
2017-05-07T00:17:48.528Z,0
2017-05-07T00:18:29.148Z,0
2017-05-07T00:19:09.733Z,0
2017-05-07T00:19:50.328Z,0
2017-05-07T00:20:30.993Z,0
2017-05-07T00:21:11.617Z,0
2017-05-07T00:21:52.294Z,0
2017-05-07T00:22:32.834Z,0
2017-05-07T00:23:13.409Z,0
2017-05-07T00:23:54.021Z,0
2017-05-07T00:24:34.596Z,0
2017-05-07T00:25:15.158Z,0
2017-05-07T00:25:55.811Z,0
2017-05-07T00:26:36.436Z,0
2017-05-07T00:27:16.981Z,0
2017-05-07T00:27:57.570Z,0
2017-05-07T00:28:38.163Z,0
2017-05-07T00:29:18.753Z,0
2017-05-07T00:29:59.332Z,0
2017-05-07T00:30:39.899Z,0
2017-05-07T00:31:20.541Z,0
2017-05-07T00:32:01.122Z,0
2017-05-07T00:32:41.743Z,0
2017-05-07T00:33:22.351Z,0
2017-05-07T00:34:02.942Z,0
2017-05-07T00:34:43.543Z,0
2017-05-07T00:35:24.117Z,0
2017-05-07T00:36:04.741Z,0
2017-05-07T00:36:45.316Z,0
2017-05-07T00:37:25.901Z,0
2017-05-07T00:38:06.500Z,0
2017-05-07T00:38:47.117Z,0
2017-05-07T00:39:27.760Z,0
2017-05-07T00:40:08.359Z,0
2017-05-07T00:40:48.967Z,0
2017-05-07T00:41:29.529Z,0
2017-05-07T00:42:10.095Z,0
2017-05-07T00:42:50.685Z,0
2017-05-07T00:43:31.269Z,0
2017-05-07T00:44:11.868Z,0
2017-05-07T00:44:52.441Z,0
2017-05-07T00:45:33.015Z,0
2017-05-07T00:46:13.579Z,0
2017-05-07T00:46:54.189Z,0
2017-05-07T00:47:34.750Z,0
2017-05-07T00:48:15.327Z,0
2017-05-07T00:48:55.897Z,0
2017-05-07T00:49:36.465Z,0
2017-05-07T00:50:17.037Z,0
2017-05-07T00:50:57.678Z,0
2017-05-07T00:51:38.220Z,0
2017-05-07T00:52:18.809Z,0
2017-05-07T00:52:59.407Z,0
2017-05-07T00:53:39.995Z,0
2017-05-07T00:54:20.600Z,0
2017-05-07T00:55:01.171Z,0
2017-05-07T00:55:41.795Z,0
2017-05-07T00:56:22.364Z,0
2017-05-07T00:57:02.941Z,0
2017-05-07T00:57:43.575Z,0
2017-05-07T00:58:24.161Z,0
2017-05-07T00:59:04.755Z,0
2017-05-07T00:59:45.333Z,0
2017-05-07T01:00:25.925Z,0
2017-05-07T01:01:06.521Z,0
2017-05-07T01:01:47.089Z,0
2017-05-07T01:02:27.697Z,0
2017-05-07T01:03:08.264Z,0
2017-05-07T01:03:48.840Z,0
2017-05-07T01:04:29.451Z,0
2017-05-07T01:05:10.031Z,0
2017-05-07T01:05:50.599Z,0
2017-05-07T01:06:31.208Z,0
2017-05-07T01:07:11.776Z,0
2017-05-07T01:07:52.373Z,0
2017-05-07T01:08:32.950Z,0
2017-05-07T01:09:13.532Z,0
2017-05-07T01:09:54.106Z,0
2017-05-07T01:10:34.707Z,0
2017-05-07T01:11:15.303Z,0
2017-05-07T01:11:55.898Z,0
2017-05-07T01:12:36.516Z,0
2017-05-07T01:13:17.126Z,0
2017-05-07T01:13:57.749Z,0
2017-05-07T01:14:38.362Z,0
2017-05-07T01:15:18.926Z,0
2017-05-07T01:15:59.510Z,0
2017-05-07T01:16:40.115Z,0
2017-05-07T01:17:20.737Z,0
2017-05-07T01:18:01.338Z,0
2017-05-07T01:18:41.913Z,0
2017-05-07T01:19:22.484Z,0
2017-05-07T01:20:03.056Z,0
2017-05-07T01:20:43.640Z,0
2017-05-07T01:21:24.223Z,0
2017-05-07T01:22:04.789Z,0
2017-05-07T01:22:45.380Z,0
2017-05-07T01:23:25.971Z,0
2017-05-07T01:24:06.545Z,0
2017-05-07T01:24:47.158Z,0
2017-05-07T01:25:27.768Z,0
2017-05-07T01:26:08.387Z,0
2017-05-07T01:26:48.987Z,0
2017-05-07T01:27:29.571Z,0
2017-05-07T01:28:10.165Z,0
2017-05-07T01:28:50.733Z,0
2017-05-07T01:29:31.302Z,0
2017-05-07T01:30:11.888Z,0
2017-05-07T01:30:52.468Z,0
2017-05-07T01:31:33.079Z,0
2017-05-07T01:32:13.653Z,0
2017-05-07T01:32:54.263Z,0
2017-05-07T01:33:34.853Z,0
2017-05-07T01:34:15.446Z,0
2017-05-07T01:34:56.019Z,0
2017-05-07T01:35:36.589Z,0
2017-05-07T01:36:17.186Z,0
2017-05-07T01:36:57.777Z,0
2017-05-07T01:37:38.378Z,0
2017-05-07T01:38:18.964Z,0
2017-05-07T01:38:59.600Z,0
2017-05-07T01:39:40.188Z,0
2017-05-07T01:40:20.749Z,0
2017-05-07T01:41:01.334Z,0
2017-05-07T01:41:41.904Z,0
2017-05-07T01:42:22.520Z,0
2017-05-07T01:43:03.106Z,0
2017-05-07T01:43:43.701Z,0
2017-05-07T01:44:24.280Z,0
2017-05-07T01:45:04.902Z,0
2017-05-07T01:45:45.460Z,0
2017-05-07T01:46:26.075Z,0
2017-05-07T01:47:06.678Z,0
2017-05-07T01:47:47.281Z,0
2017-05-07T01:48:27.862Z,0
2017-05-07T01:49:08.442Z,0
2017-05-07T01:49:49.033Z,0
2017-05-07T01:50:29.624Z,0
2017-05-07T01:51:10.236Z,0
2017-05-07T01:51:50.839Z,0
2017-05-07T01:52:31.523Z,0
2017-05-07T01:53:12.097Z,0
2017-05-07T01:53:52.692Z,0
2017-05-07T01:54:33.289Z,0
2017-05-07T01:55:13.911Z,0
2017-05-07T01:55:54.502Z,0
2017-05-07T01:56:35.097Z,0
2017-05-07T01:57:15.675Z,0
2017-05-07T01:57:56.289Z,0
2017-05-07T01:58:36.886Z,0
2017-05-07T01:59:17.518Z,0
2017-05-07T01:59:58.124Z,0
2017-05-07T02:00:38.710Z,0
2017-05-07T02:01:19.305Z,0
2017-05-07T02:01:59.880Z,0
2017-05-07T02:02:40.498Z,0
2017-05-07T02:03:21.078Z,0
2017-05-07T02:04:01.665Z,0
2017-05-07T02:04:42.306Z,0
2017-05-07T02:05:22.889Z,0
2017-05-07T02:06:03.448Z,0
2017-05-07T02:06:44.036Z,0
2017-05-07T02:07:24.655Z,0
2017-05-07T02:08:05.224Z,0
2017-05-07T02:08:45.832Z,0
2017-05-07T02:09:26.478Z,0
2017-05-07T02:10:07.102Z,0
2017-05-07T02:10:47.693Z,0
2017-05-07T02:11:28.266Z,0
2017-05-07T02:12:08.835Z,0
2017-05-07T02:12:49.453Z,0
2017-05-07T02:13:30.026Z,0
2017-05-07T02:14:10.603Z,0
2017-05-07T02:14:51.232Z,0
2017-05-07T02:15:31.785Z,0
2017-05-07T02:16:12.378Z,0
2017-05-07T02:16:52.978Z,0
2017-05-07T02:17:33.569Z,0
2017-05-07T02:18:14.187Z,0
2017-05-07T02:18:54.758Z,0
2017-05-07T02:19:35.361Z,0
2017-05-07T02:20:15.971Z,0
2017-05-07T02:20:56.551Z,0
2017-05-07T02:21:37.211Z,0
2017-05-07T02:22:17.797Z,0
2017-05-07T02:22:58.389Z,0
2017-05-07T02:23:39.026Z,0
2017-05-07T02:24:19.601Z,0
2017-05-07T02:25:00.213Z,0
2017-05-07T02:25:40.805Z,0
2017-05-07T02:26:21.427Z,0
2017-05-07T02:27:02.010Z,0
2017-05-07T02:27:42.729Z,0
2017-05-07T02:28:23.316Z,0
2017-05-07T02:29:03.912Z,0
2017-05-07T02:29:44.483Z,0
2017-05-07T02:30:25.139Z,0
2017-05-07T02:31:05.739Z,0
2017-05-07T02:31:46.319Z,0
2017-05-07T02:32:26.898Z,0
2017-05-07T02:33:07.502Z,0
2017-05-07T02:33:48.121Z,0
2017-05-07T02:34:28.698Z,0
2017-05-07T02:35:09.380Z,0
2017-05-07T02:35:49.957Z,0
2017-05-07T02:36:30.541Z,0
2017-05-07T02:37:11.139Z,0
2017-05-07T02:37:51.752Z,0
2017-05-07T02:38:32.357Z,0
2017-05-07T02:39:12.951Z,0
2017-05-07T02:39:53.556Z,0
2017-05-07T02:40:34.160Z,0
2017-05-07T02:41:14.750Z,0
2017-05-07T02:41:55.508Z,0
2017-05-07T02:42:36.083Z,0
2017-05-07T02:43:16.700Z,0
2017-05-07T02:43:57.299Z,0
2017-05-07T02:44:37.883Z,0
2017-05-07T02:45:18.478Z,0
2017-05-07T02:45:59.054Z,0
2017-05-07T02:46:39.621Z,0
2017-05-07T02:47:20.197Z,0
2017-05-07T02:48:00.763Z,0
2017-05-07T02:48:41.360Z,0
2017-05-07T02:49:21.951Z,0
2017-05-07T02:50:02.522Z,0
2017-05-07T02:50:43.115Z,0
2017-05-07T02:51:23.688Z,0
2017-05-07T02:52:04.450Z,0
2017-05-07T02:52:45.047Z,0
2017-05-07T02:53:25.640Z,0
2017-05-07T02:54:06.277Z,0
2017-05-07T02:54:46.874Z,0
2017-05-07T02:55:27.484Z,0
2017-05-07T02:56:08.074Z,0
2017-05-07T02:56:48.645Z,0
2017-05-07T02:57:29.237Z,0
2017-05-07T02:58:09.844Z,0
2017-05-07T02:58:50.406Z,0
2017-05-07T02:59:30.977Z,0
2017-05-07T03:00:11.547Z,0
2017-05-07T03:00:52.148Z,0
2017-05-07T03:01:32.731Z,0
2017-05-07T03:02:13.304Z,0
2017-05-07T03:02:53.876Z,0
2017-05-07T03:03:34.469Z,0
2017-05-07T03:04:15.065Z,0
2017-05-07T03:04:55.629Z,0
2017-05-07T03:05:36.209Z,0
2017-05-07T03:06:16.776Z,0
2017-05-07T03:06:57.350Z,0
2017-05-07T03:07:37.934Z,0
2017-05-07T03:08:18.522Z,0
2017-05-07T03:08:59.191Z,0
2017-05-07T03:09:39.813Z,0
2017-05-07T03:10:20.439Z,0
2017-05-07T03:11:01.046Z,0
2017-05-07T03:11:41.632Z,0
2017-05-07T03:12:22.230Z,0
2017-05-07T03:13:02.816Z,0
2017-05-07T03:13:43.415Z,0
2017-05-07T03:14:23.991Z,0
2017-05-07T03:15:04.591Z,0
2017-05-07T03:15:45.210Z,0
2017-05-07T03:16:25.799Z,0
2017-05-07T03:17:06.394Z,0
2017-05-07T03:17:46.971Z,0
2017-05-07T03:18:27.557Z,0
2017-05-07T03:19:08.166Z,0
2017-05-07T03:19:48.749Z,0
2017-05-07T03:20:29.348Z,0
2017-05-07T03:21:09.957Z,0
2017-05-07T03:21:50.520Z,0
2017-05-07T03:22:31.113Z,0
2017-05-07T03:23:11.770Z,0
2017-05-07T03:23:52.362Z,0
2017-05-07T03:24:33.032Z,0
2017-05-07T03:25:13.625Z,0
2017-05-07T03:25:54.236Z,0
2017-05-07T03:26:34.825Z,0
2017-05-07T03:27:15.401Z,0
2017-05-07T03:27:56.019Z,0
2017-05-07T03:28:36.707Z,0
2017-05-07T03:29:17.290Z,0
2017-05-07T03:29:57.924Z,0
2017-05-07T03:30:38.511Z,0
2017-05-07T03:31:19.129Z,0
2017-05-07T03:31:59.738Z,0
2017-05-07T03:32:40.323Z,0
2017-05-07T03:33:21.007Z,0
2017-05-07T03:34:01.629Z,0
2017-05-07T03:34:42.164Z,0
2017-05-07T03:35:22.830Z,0
2017-05-07T03:36:03.420Z,0
2017-05-07T03:36:44.024Z,0
2017-05-07T03:37:24.645Z,0
2017-05-07T03:38:05.228Z,0
2017-05-07T03:38:45.837Z,0
2017-05-07T03:39:26.438Z,0
2017-05-07T03:40:07.024Z,0
2017-05-07T03:40:47.643Z,0
2017-05-07T03:41:28.227Z,0
2017-05-07T03:42:08.838Z,0
2017-05-07T03:42:49.498Z,0
2017-05-07T03:43:30.084Z,0
2017-05-07T03:44:10.786Z,0
2017-05-07T03:44:51.354Z,0
2017-05-07T03:45:31.965Z,0
2017-05-07T03:46:12.584Z,0
2017-05-07T03:46:53.201Z,0
2017-05-07T03:47:33.760Z,0
2017-05-07T03:48:14.399Z,0
2017-05-07T03:48:54.976Z,0
2017-05-07T03:49:35.554Z,0
2017-05-07T03:50:16.147Z,0
2017-05-07T03:50:56.742Z,0
2017-05-07T03:51:37.342Z,0
2017-05-07T03:52:17.960Z,0
2017-05-07T03:52:58.531Z,0
2017-05-07T03:53:39.156Z,0
2017-05-07T03:54:19.754Z,0
2017-05-07T03:55:00.337Z,0
2017-05-07T03:55:40.989Z,0
2017-05-07T03:56:21.589Z,0
2017-05-07T03:57:02.206Z,0
2017-05-07T03:57:42.778Z,0
2017-05-07T03:58:23.367Z,0
2017-05-07T03:59:03.977Z,0
2017-05-07T03:59:44.565Z,0
2017-05-07T04:00:25.142Z,0
2017-05-07T04:01:05.794Z,0
2017-05-07T04:01:46.328Z,0
2017-05-07T04:02:26.900Z,0
2017-05-07T04:03:07.489Z,0
2017-05-07T04:03:48.086Z,0
2017-05-07T04:04:28.676Z,0
2017-05-07T04:05:09.302Z,0
2017-05-07T04:05:49.878Z,0
2017-05-07T04:06:30.555Z,0
2017-05-07T04:07:11.154Z,0
2017-05-07T04:07:51.743Z,0
2017-05-07T04:08:32.326Z,0
2017-05-07T04:09:12.910Z,0
2017-05-07T04:09:53.569Z,0
2017-05-07T04:10:34.144Z,0
2017-05-07T04:11:14.725Z,0
2017-05-07T04:11:55.327Z,0
2017-05-07T04:12:35.937Z,0
2017-05-07T04:13:16.515Z,0
2017-05-07T04:13:57.149Z,0
2017-05-07T04:14:37.736Z,0
2017-05-07T04:15:18.315Z,0
2017-05-07T04:15:58.926Z,0
2017-05-07T04:16:39.521Z,0
2017-05-07T04:17:20.140Z,0
2017-05-07T04:18:00.711Z,0
2017-05-07T04:18:41.355Z,0
2017-05-07T04:19:21.930Z,0
2017-05-07T04:20:02.526Z,0
2017-05-07T04:20:43.161Z,5
2017-05-07T04:21:23.703Z,5
2017-05-07T04:22:04.299Z,5
2017-05-07T04:22:44.888Z,5
2017-05-07T04:23:25.542Z,5
2017-05-07T04:24:06.141Z,5
2017-05-07T04:24:46.753Z,5
2017-05-07T04:25:27.382Z,5
2017-05-07T04:26:08.081Z,5
2017-05-07T04:26:48.686Z,5
2017-05-07T04:27:29.296Z,5
2017-05-07T04:28:09.897Z,5
2017-05-07T04:28:50.538Z,5
2017-05-07T04:29:31.176Z,5
2017-05-07T04:30:11.807Z,5
2017-05-07T04:30:52.448Z,5
2017-05-07T04:31:33.027Z,5
2017-05-07T04:32:13.646Z,5
2017-05-07T04:32:54.240Z,5
2017-05-07T04:33:34.851Z,5
2017-05-07T04:34:15.562Z,5
2017-05-07T04:34:56.199Z,5
2017-05-07T04:35:36.878Z,5
2017-05-07T04:36:17.522Z,5
2017-05-07T04:36:58.174Z,5
2017-05-07T04:37:38.839Z,5
2017-05-07T04:38:19.431Z,5
2017-05-07T04:39:00.083Z,5
2017-05-07T04:39:40.710Z,5
2017-05-07T04:40:21.318Z,5
2017-05-07T04:41:02.011Z,5
2017-05-07T04:41:42.689Z,5
2017-05-07T04:42:23.303Z,10
2017-05-07T04:43:03.909Z,10
2017-05-07T04:43:44.560Z,10
2017-05-07T04:44:25.226Z,10
2017-05-07T04:45:05.862Z,10
2017-05-07T04:45:46.464Z,10
2017-05-07T04:46:27.083Z,10
2017-05-07T04:47:07.684Z,10
2017-05-07T04:47:48.299Z,10
2017-05-07T04:48:28.919Z,10
2017-05-07T04:49:09.573Z,10
2017-05-07T04:49:50.215Z,10
2017-05-07T04:50:30.819Z,10
2017-05-07T04:51:11.451Z,10
2017-05-07T04:51:52.091Z,15
2017-05-07T04:52:32.753Z,15
2017-05-07T04:53:13.428Z,15
2017-05-07T04:53:54.086Z,15
2017-05-07T04:54:34.819Z,15
2017-05-07T04:55:15.425Z,15
2017-05-07T04:55:56.028Z,15
2017-05-07T04:56:36.756Z,15
2017-05-07T04:57:17.473Z,15
2017-05-07T04:57:58.143Z,15
2017-05-07T04:58:38.848Z,15
2017-05-07T04:59:19.538Z,15
2017-05-07T05:00:00.328Z,15
2017-05-07T05:00:41.082Z,15
2017-05-07T05:01:21.729Z,15
2017-05-07T05:02:02.376Z,15
2017-05-07T05:02:43.058Z,15
2017-05-07T05:03:23.754Z,15
2017-05-07T05:04:04.485Z,15
2017-05-07T05:04:45.092Z,15
2017-05-07T05:05:25.756Z,15
2017-05-07T05:06:06.465Z,15
2017-05-07T05:06:47.055Z,20
2017-05-07T05:07:27.725Z,20
2017-05-07T05:08:08.374Z,20
2017-05-07T05:08:49.087Z,20
2017-05-07T05:09:29.779Z,20
2017-05-07T05:10:10.405Z,20
2017-05-07T05:10:51.080Z,20
2017-05-07T05:11:31.757Z,20
2017-05-07T05:12:12.444Z,20
2017-05-07T05:12:53.063Z,20
2017-05-07T05:13:33.743Z,20
2017-05-07T05:14:14.463Z,20
2017-05-07T05:14:55.108Z,20
2017-05-07T05:15:35.741Z,25
2017-05-07T05:16:16.414Z,25
2017-05-07T05:16:57.100Z,25
2017-05-07T05:17:37.691Z,25
2017-05-07T05:18:18.396Z,25
2017-05-07T05:18:59.090Z,25
2017-05-07T05:19:39.774Z,30
2017-05-07T05:20:20.401Z,30
2017-05-07T05:21:01.097Z,30
2017-05-07T05:21:41.734Z,30
2017-05-07T05:22:22.408Z,30
2017-05-07T05:23:03.027Z,30
2017-05-07T05:23:43.701Z,30
2017-05-07T05:24:24.383Z,35
2017-05-07T05:25:05.082Z,35
2017-05-07T05:25:45.718Z,35
2017-05-07T05:26:26.378Z,35
2017-05-07T05:27:07.035Z,35
2017-05-07T05:27:47.730Z,35
2017-05-07T05:28:28.397Z,35
2017-05-07T05:29:09.048Z,35
2017-05-07T05:29:49.709Z,35
2017-05-07T05:30:30.382Z,35
2017-05-07T05:31:10.986Z,35
2017-05-07T05:31:51.632Z,35
2017-05-07T05:32:32.264Z,35
2017-05-07T05:33:12.912Z,35
2017-05-07T05:33:53.531Z,35
2017-05-07T05:34:34.154Z,35
2017-05-07T05:35:14.783Z,35
2017-05-07T05:35:55.464Z,40
2017-05-07T05:36:36.095Z,40
2017-05-07T05:37:16.720Z,40
2017-05-07T05:37:57.333Z,40
2017-05-07T05:38:37.998Z,45
2017-05-07T05:39:18.662Z,45
2017-05-07T05:39:59.285Z,45
2017-05-07T05:40:39.938Z,45
2017-05-07T05:41:20.631Z,45
2017-05-07T05:42:01.242Z,45
2017-05-07T05:42:41.849Z,45
2017-05-07T05:43:22.552Z,45
2017-05-07T05:44:03.168Z,45
2017-05-07T05:44:43.788Z,45
2017-05-07T05:45:24.398Z,45
2017-05-07T05:46:05.024Z,50
2017-05-07T05:46:45.705Z,50
2017-05-07T05:47:26.327Z,45
2017-05-07T05:48:06.955Z,45
2017-05-07T05:48:47.565Z,45
2017-05-07T05:49:28.188Z,45
2017-05-07T05:50:08.796Z,45
2017-05-07T05:50:49.443Z,45
2017-05-07T05:51:30.078Z,45
2017-05-07T05:52:10.707Z,45
2017-05-07T05:52:54.659Z,45
2017-05-07T05:53:38.696Z,45
2017-05-07T05:54:19.323Z,40
2017-05-07T05:55:01.176Z,40
2017-05-07T05:55:44.798Z,40
2017-05-07T05:56:28.082Z,35
2017-05-07T05:57:12.340Z,35
2017-05-07T05:57:53.025Z,35
2017-05-07T05:58:37.340Z,35
2017-05-07T05:59:20.697Z,35
2017-05-07T06:00:03.689Z,35
2017-05-07T06:00:48.978Z,35
2017-05-07T06:01:34.034Z,30
2017-05-07T06:02:17.797Z,30
2017-05-07T06:02:58.426Z,30
2017-05-07T06:03:46.168Z,30
2017-05-07T06:04:27.775Z,30
2017-05-07T06:05:12.861Z,30
2017-05-07T06:05:53.461Z,30
2017-05-07T06:06:34.707Z,30
2017-05-07T06:07:15.399Z,30
2017-05-07T06:07:55.996Z,30
2017-05-07T06:08:36.616Z,30
2017-05-07T06:09:17.284Z,30
2017-05-07T06:09:57.901Z,25
2017-05-07T06:10:38.627Z,25
2017-05-07T06:11:19.215Z,25
2017-05-07T06:11:59.811Z,25
2017-05-07T06:12:40.480Z,25
2017-05-07T06:13:21.125Z,25
2017-05-07T06:14:01.712Z,25
2017-05-07T06:14:42.325Z,25
2017-05-07T06:15:22.933Z,25
2017-05-07T06:16:03.524Z,25
2017-05-07T06:16:44.143Z,25
2017-05-07T06:17:24.741Z,25
2017-05-07T06:18:05.366Z,25
2017-05-07T06:18:45.964Z,25
2017-05-07T06:19:26.591Z,25
2017-05-07T06:20:07.232Z,25
2017-05-07T06:20:47.866Z,25
2017-05-07T06:21:28.533Z,25
2017-05-07T06:22:09.120Z,30
2017-05-07T06:22:49.781Z,30
2017-05-07T06:23:30.359Z,30
2017-05-07T06:24:11.061Z,30
2017-05-07T06:24:51.731Z,35
2017-05-07T06:25:32.351Z,40
2017-05-07T06:26:12.944Z,40
2017-05-07T06:26:53.573Z,40
2017-05-07T06:27:34.151Z,35
2017-05-07T06:28:14.735Z,35
2017-05-07T06:28:55.344Z,35
2017-05-07T06:29:35.958Z,35
2017-05-07T06:30:16.561Z,40
2017-05-07T06:30:57.144Z,40
2017-05-07T06:31:37.745Z,35
2017-05-07T06:32:18.375Z,40
2017-05-07T06:32:58.970Z,40
2017-05-07T06:33:39.584Z,40
2017-05-07T06:34:20.183Z,45
2017-05-07T06:35:00.786Z,50
2017-05-07T06:35:41.381Z,50
2017-05-07T06:36:21.999Z,55
2017-05-07T06:37:02.600Z,55
2017-05-07T06:37:43.201Z,50
2017-05-07T06:38:23.840Z,50
2017-05-07T06:39:04.439Z,50
2017-05-07T06:39:45.120Z,45
2017-05-07T06:40:25.721Z,45
2017-05-07T06:41:06.361Z,50
2017-05-07T06:41:47.022Z,50
2017-05-07T06:42:27.721Z,45
2017-05-07T06:43:08.322Z,45
2017-05-07T06:43:48.942Z,40
2017-05-07T06:44:29.564Z,40
2017-05-07T06:45:10.202Z,40
2017-05-07T06:45:50.844Z,40
2017-05-07T06:46:31.425Z,35
2017-05-07T06:47:12.054Z,30
2017-05-07T06:47:52.711Z,30
2017-05-07T06:48:33.304Z,25
2017-05-07T06:49:14.036Z,25
2017-05-07T06:49:54.643Z,20
2017-05-07T06:50:35.225Z,20
2017-05-07T06:51:15.862Z,20
2017-05-07T06:51:56.455Z,20
2017-05-07T06:52:37.096Z,20
2017-05-07T06:53:17.716Z,15
2017-05-07T06:53:58.333Z,20
2017-05-07T06:54:38.945Z,20
2017-05-07T06:55:19.554Z,20
2017-05-07T06:56:00.169Z,20
2017-05-07T06:56:40.806Z,20
2017-05-07T06:57:21.393Z,20
2017-05-07T06:58:02.063Z,20
2017-05-07T06:58:42.680Z,20
2017-05-07T06:59:23.279Z,20
2017-05-07T07:00:03.893Z,25
2017-05-07T07:00:44.496Z,30
2017-05-07T07:01:25.132Z,30
2017-05-07T07:02:05.745Z,35
2017-05-07T07:02:46.344Z,35
2017-05-07T07:03:29.574Z,40
2017-05-07T07:04:10.760Z,45
2017-05-07T07:04:51.379Z,50
2017-05-07T07:05:31.977Z,60
2017-05-07T07:06:12.694Z,75
2017-05-07T07:06:53.345Z,90
2017-05-07T07:07:34.659Z,110
2017-05-07T07:08:19.090Z,155
2017-05-07T07:08:59.715Z,170
2017-05-07T07:09:40.348Z,175
2017-05-07T07:10:23.719Z,175
2017-05-07T07:11:05.075Z,170
2017-05-07T07:11:46.153Z,165
2017-05-07T07:12:26.828Z,160
2017-05-07T07:13:08.098Z,155
2017-05-07T07:13:50.891Z,155
2017-05-07T07:14:31.942Z,145
2017-05-07T07:15:12.658Z,140
2017-05-07T07:15:53.232Z,130
2017-05-07T07:16:33.952Z,120
2017-05-07T07:17:19.802Z,110
2017-05-07T07:18:06.250Z,105
2017-05-07T07:18:57.522Z,95
2017-05-07T07:19:39.365Z,90
2017-05-07T07:20:22.462Z,80
2017-05-07T07:21:04.378Z,75
2017-05-07T07:21:45.003Z,70
2017-05-07T07:22:32.163Z,70
2017-05-07T07:23:21.366Z,65
2017-05-07T07:24:01.977Z,65
2017-05-07T07:24:46.249Z,65
2017-05-07T07:25:27.975Z,70
2017-05-07T07:26:08.609Z,85
2017-05-07T07:26:49.487Z,90
2017-05-07T07:27:30.116Z,95
2017-05-07T07:28:10.726Z,95
2017-05-07T07:28:51.361Z,100
2017-05-07T07:29:31.957Z,100
2017-05-07T07:30:12.591Z,105
2017-05-07T07:30:54.334Z,100
2017-05-07T07:31:41.462Z,95
2017-05-07T07:32:26.718Z,95
2017-05-07T07:33:07.381Z,90
2017-05-07T07:33:48.320Z,85
2017-05-07T07:34:31.402Z,80
2017-05-07T07:35:14.396Z,80
2017-05-07T07:35:56.764Z,80
2017-05-07T07:36:39.508Z,85
2017-05-07T07:37:22.241Z,90
2017-05-07T07:38:04.873Z,95
2017-05-07T07:38:48.274Z,95
2017-05-07T07:39:31.074Z,90
2017-05-07T07:40:13.081Z,85
2017-05-07T07:40:55.731Z,75
2017-05-07T07:41:38.235Z,65
2017-05-07T07:42:20.175Z,60
2017-05-07T07:43:00.881Z,55
2017-05-07T07:43:41.629Z,55
2017-05-07T07:44:24.428Z,55
2017-05-07T07:45:06.977Z,55
2017-05-07T07:45:47.675Z,60
2017-05-07T07:46:29.046Z,60
2017-05-07T07:47:09.666Z,65
2017-05-07T07:47:50.285Z,65
2017-05-07T07:48:32.652Z,65
2017-05-07T07:49:13.382Z,65
2017-05-07T07:49:54.089Z,65
2017-05-07T07:50:34.671Z,60
2017-05-07T07:51:16.075Z,55
2017-05-07T07:51:56.694Z,55
2017-05-07T07:52:37.338Z,55
2017-05-07T07:53:18.864Z,55
2017-05-07T07:54:00.586Z,55
2017-05-07T07:54:41.744Z,55
2017-05-07T07:55:22.408Z,55
2017-05-07T07:56:03.040Z,55
2017-05-07T07:56:43.726Z,60
2017-05-07T07:57:24.423Z,65
2017-05-07T07:58:05.074Z,75
2017-05-07T07:58:45.716Z,85
2017-05-07T07:59:26.343Z,85
2017-05-07T08:00:07.042Z,85
2017-05-07T08:00:47.638Z,85
2017-05-07T08:01:28.270Z,80
2017-05-07T08:02:08.859Z,75
2017-05-07T08:02:49.531Z,75
2017-05-07T08:03:30.156Z,80
2017-05-07T08:04:10.760Z,80
2017-05-07T08:04:51.379Z,85
2017-05-07T08:05:32.058Z,90
2017-05-07T08:06:12.668Z,100
2017-05-07T08:06:53.298Z,120
2017-05-07T08:07:33.907Z,140
2017-05-07T08:08:14.528Z,160
2017-05-07T08:08:55.166Z,165
2017-05-07T08:09:35.809Z,165
2017-05-07T08:10:16.439Z,170
2017-05-07T08:10:57.102Z,180
2017-05-07T08:11:37.682Z,190
2017-05-07T08:12:18.346Z,185
2017-05-07T08:12:58.948Z,150
2017-05-07T08:13:39.555Z,145
2017-05-07T08:14:20.168Z,135
2017-05-07T08:15:00.776Z,135
2017-05-07T08:15:41.370Z,135
2017-05-07T08:16:21.973Z,135
2017-05-07T08:17:02.596Z,140
2017-05-07T08:17:43.193Z,145
2017-05-07T08:18:23.791Z,140
2017-05-07T08:19:04.395Z,145
2017-05-07T08:19:45.000Z,135
2017-05-07T08:20:25.610Z,130
2017-05-07T08:21:06.196Z,125
2017-05-07T08:21:46.815Z,125
2017-05-07T08:22:27.395Z,125
2017-05-07T08:23:08.002Z,120
2017-05-07T08:23:48.646Z,115
2017-05-07T08:24:29.265Z,110
2017-05-07T08:25:09.863Z,105
2017-05-07T08:25:50.463Z,105
2017-05-07T08:26:31.073Z,110
2017-05-07T08:27:11.674Z,115
2017-05-07T08:27:52.280Z,115
2017-05-07T08:28:32.898Z,115
2017-05-07T08:29:13.534Z,120
2017-05-07T08:29:54.104Z,115
2017-05-07T08:30:34.700Z,110
2017-05-07T08:31:15.314Z,110
2017-05-07T08:31:55.885Z,105
2017-05-07T08:32:36.473Z,110
2017-05-07T08:33:17.087Z,110
2017-05-07T08:33:57.705Z,110
2017-05-07T08:34:38.333Z,110
2017-05-07T08:35:19.076Z,115
2017-05-07T08:35:59.678Z,115
2017-05-07T08:36:40.267Z,120
2017-05-07T08:37:20.857Z,125
2017-05-07T08:38:01.436Z,120
2017-05-07T08:38:42.019Z,120
2017-05-07T08:39:22.612Z,125
2017-05-07T08:40:03.210Z,125
2017-05-07T08:40:43.835Z,125
2017-05-07T08:41:24.423Z,125
2017-05-07T08:42:05.020Z,120
2017-05-07T08:42:45.616Z,120
2017-05-07T08:43:26.219Z,115
2017-05-07T08:44:06.805Z,115
2017-05-07T08:44:47.384Z,115
2017-05-07T08:45:27.968Z,120
2017-05-07T08:46:08.532Z,115
2017-05-07T08:46:49.502Z,115
2017-05-07T08:47:30.215Z,115
2017-05-07T08:48:10.907Z,120
2017-05-07T08:48:51.488Z,120
2017-05-07T08:49:32.066Z,120
2017-05-07T08:50:12.639Z,125
2017-05-07T08:50:53.280Z,125
2017-05-07T08:51:33.901Z,130
2017-05-07T08:52:14.465Z,130
2017-05-07T08:52:55.085Z,135
2017-05-07T08:53:35.679Z,145
2017-05-07T08:54:16.289Z,150
2017-05-07T08:54:56.879Z,160
2017-05-07T08:55:37.482Z,165
2017-05-07T08:56:18.088Z,170
2017-05-07T08:56:58.681Z,175
2017-05-07T08:57:39.282Z,185
2017-05-07T08:58:19.881Z,195
2017-05-07T08:59:00.479Z,205
2017-05-07T08:59:41.073Z,210
2017-05-07T09:00:21.649Z,225
2017-05-07T09:03:00.397Z,245
2017-05-07T09:03:40.976Z,255
2017-05-07T09:04:21.561Z,260
2017-05-07T09:05:02.161Z,260
2017-05-07T09:05:42.820Z,265
2017-05-07T09:06:23.411Z,270
2017-05-07T09:07:04.020Z,270
2017-05-07T09:07:44.608Z,270
2017-05-07T09:08:25.188Z,275
2017-05-07T09:09:05.771Z,265
2017-05-07T09:09:46.342Z,260
2017-05-07T09:10:26.946Z,250
2017-05-07T09:11:07.535Z,240
2017-05-07T09:11:48.129Z,225
2017-05-07T09:12:28.702Z,210
2017-05-07T09:13:09.290Z,200
2017-05-07T09:13:49.900Z,195
2017-05-07T09:14:30.495Z,190
2017-05-07T09:15:11.075Z,185
2017-05-07T09:15:51.658Z,175
2017-05-07T09:16:32.276Z,165
2017-05-07T09:17:12.850Z,160
2017-05-07T09:17:53.431Z,155
2017-05-07T09:18:34.011Z,155
2017-05-07T09:19:14.621Z,155
2017-05-07T09:19:55.193Z,150
2017-05-07T09:20:35.767Z,145
2017-05-07T09:21:16.345Z,145
2017-05-07T09:21:56.919Z,145
2017-05-07T09:22:37.523Z,140
2017-05-07T09:23:18.112Z,140
2017-05-07T09:23:58.695Z,135
2017-05-07T09:24:39.280Z,135
2017-05-07T09:25:19.865Z,130
2017-05-07T09:26:00.502Z,125
2017-05-07T09:26:41.089Z,125
2017-05-07T09:27:21.693Z,130
2017-05-07T09:28:02.290Z,135
2017-05-07T09:28:42.897Z,135
2017-05-07T09:29:23.483Z,135
2017-05-07T09:30:04.088Z,135
2017-05-07T09:30:44.718Z,130
2017-05-07T09:31:25.300Z,125
2017-05-07T09:32:05.888Z,115
2017-05-07T09:32:46.510Z,110
2017-05-07T09:33:27.098Z,105
2017-05-07T09:34:07.677Z,100
2017-05-07T09:34:48.273Z,100
2017-05-07T09:35:28.848Z,95
2017-05-07T09:36:09.431Z,90
2017-05-07T09:36:50.024Z,90
2017-05-07T09:37:30.679Z,90
2017-05-07T09:38:11.249Z,90
2017-05-07T09:38:51.835Z,85
2017-05-07T09:39:32.464Z,85
2017-05-07T09:40:13.040Z,85
2017-05-07T09:40:53.612Z,85
2017-05-07T09:41:34.224Z,90
2017-05-07T09:42:14.800Z,90
2017-05-07T09:42:55.390Z,95
2017-05-07T09:43:36.005Z,100
2017-05-07T09:44:16.605Z,105
2017-05-07T09:44:57.208Z,110
2017-05-07T09:45:37.803Z,115
2017-05-07T09:46:18.388Z,115
2017-05-07T09:46:58.971Z,120
2017-05-07T09:47:39.586Z,125
2017-05-07T09:48:20.166Z,125
2017-05-07T09:49:00.773Z,130
2017-05-07T09:49:41.355Z,130